createdAt,value
2022-08-30T00:00:02.935Z,15.60
2022-08-30T00:02:50.696Z,15.60
2022-08-30T00:05:37.308Z,15.60
2022-08-30T00:08:23.217Z,15.60
2022-08-30T00:11:12.873Z,15.60
2022-08-30T00:13:58.925Z,15.60
2022-08-30T00:16:45.052Z,15.60
2022-08-30T00:19:30.755Z,15.60
2022-08-30T00:22:16.966Z,15.60
2022-08-30T00:25:03.304Z,15.50
2022-08-30T00:27:49.870Z,15.60
2022-08-30T00:30:36.423Z,15.50
2022-08-30T00:33:23.293Z,15.50
2022-08-30T00:36:12.117Z,15.50
2022-08-30T00:38:58.043Z,15.40
2022-08-30T00:41:44.906Z,15.40
2022-08-30T00:44:30.487Z,15.30
2022-08-30T00:47:16.921Z,15.30
2022-08-30T00:50:03.612Z,15.30
2022-08-30T00:52:52.059Z,15.20
2022-08-30T00:55:38.857Z,15.30
2022-08-30T00:58:32.397Z,15.20
2022-08-30T01:01:19.277Z,15.30
2022-08-30T01:04:08.873Z,15.20
2022-08-30T01:06:54.668Z,15.20
2022-08-30T01:09:40.684Z,15.20
2022-08-30T01:12:27.393Z,15.20
2022-08-30T01:15:14.699Z,15.20
2022-08-30T01:18:01.372Z,15.20
2022-08-30T01:20:57.293Z,15.20
2022-08-30T01:23:45.922Z,15.20
2022-08-30T01:26:36.411Z,15.20
2022-08-30T01:29:25.911Z,15.20
2022-08-30T01:32:27.325Z,15.20
2022-08-30T01:35:20.469Z,15.20
2022-08-30T01:38:06.262Z,15.20
2022-08-30T01:41:01.001Z,15.20
2022-08-30T01:43:48.254Z,15.20
2022-08-30T01:46:38.974Z,15.20
2022-08-30T01:49:27.847Z,15.20
2022-08-30T01:52:14.771Z,15.20
2022-08-30T01:55:01.143Z,15.10
2022-08-30T01:57:47.437Z,15.10
2022-08-30T02:00:33.431Z,15.10
2022-08-30T02:03:20.002Z,15.10
2022-08-30T02:06:09.962Z,15.10
2022-08-30T02:08:56.225Z,15.10
2022-08-30T02:11:42.454Z,15.10
2022-08-30T02:14:28.490Z,15.10
2022-08-30T02:17:15.215Z,15.10
2022-08-30T02:20:01.796Z,15.10
2022-08-30T02:22:48.135Z,15.10
2022-08-30T02:25:35.718Z,15.10
2022-08-30T02:28:21.796Z,15.10
2022-08-30T02:31:12.019Z,15.10
2022-08-30T02:33:57.888Z,15.10
2022-08-30T02:36:45.191Z,15.10
2022-08-30T02:39:30.996Z,15.00
2022-08-30T02:42:17.261Z,14.90
2022-08-30T02:45:03.921Z,14.80
2022-08-30T02:47:49.733Z,14.80
2022-08-30T02:50:39.347Z,14.70
2022-08-30T02:53:25.291Z,14.60
2022-08-30T02:56:14.192Z,14.70
2022-08-30T02:58:59.934Z,14.60
2022-08-30T03:01:46.255Z,14.60
2022-08-30T03:04:32.303Z,14.50
2022-08-30T03:07:19.610Z,14.60
2022-08-30T03:10:06.311Z,14.60
2022-08-30T03:12:52.260Z,14.60
2022-08-30T03:15:40.187Z,14.60
2022-08-30T03:18:26.798Z,14.50
2022-08-30T03:21:15.643Z,14.50
2022-08-30T03:24:01.671Z,14.50
2022-08-30T03:26:47.731Z,14.50
2022-08-30T03:29:33.915Z,14.50
2022-08-30T03:32:20.079Z,14.50
2022-08-30T03:35:06.743Z,14.50
2022-08-30T03:37:56.134Z,14.50
2022-08-30T03:40:42.619Z,14.50
2022-08-30T03:43:28.806Z,14.50
2022-08-30T03:46:16.053Z,14.50
2022-08-30T03:49:02.223Z,14.50
2022-08-30T03:51:48.806Z,14.50
2022-08-30T03:54:34.518Z,14.50
2022-08-30T03:57:24.388Z,14.50
2022-08-30T04:00:12.492Z,14.50
2022-08-30T04:02:58.237Z,14.40
2022-08-30T04:05:45.349Z,14.40
2022-08-30T04:08:31.365Z,14.30
2022-08-30T04:11:17.015Z,14.30
2022-08-30T04:14:02.896Z,14.40
2022-08-30T04:16:49.290Z,14.40
2022-08-30T04:19:35.015Z,14.40
2022-08-30T04:22:22.058Z,14.40
2022-08-30T04:25:08.880Z,14.40
2022-08-30T04:28:02.295Z,14.40
2022-08-30T04:30:47.918Z,14.40
2022-08-30T04:33:35.619Z,14.50
2022-08-30T04:36:24.390Z,14.50
2022-08-30T04:39:10.152Z,14.50
2022-08-30T04:41:56.137Z,14.50
2022-08-30T04:44:41.713Z,14.50
2022-08-30T04:47:27.853Z,14.50
2022-08-30T04:50:18.770Z,14.50
2022-08-30T04:53:05.464Z,14.50
2022-08-30T04:55:51.111Z,14.50
2022-08-30T04:58:37.220Z,14.50
2022-08-30T05:01:26.293Z,14.50
2022-08-30T05:04:12.350Z,14.60
2022-08-30T05:06:58.172Z,14.60
2022-08-30T05:09:44.167Z,14.60
2022-08-30T05:12:30.160Z,14.70
2022-08-30T05:15:16.471Z,14.80
2022-08-30T05:18:03.845Z,14.90
2022-08-30T05:20:49.792Z,14.90
2022-08-30T05:23:39.330Z,14.90
2022-08-30T05:26:28.515Z,15.00
2022-08-30T05:29:14.153Z,15.10
2022-08-30T05:32:00.305Z,15.20
2022-08-30T05:34:45.993Z,15.20
2022-08-30T05:37:31.665Z,15.20
2022-08-30T05:40:17.699Z,15.30
2022-08-30T05:43:03.633Z,15.30
2022-08-30T05:45:57.880Z,15.30
2022-08-30T05:48:43.609Z,15.30
2022-08-30T05:51:31.152Z,15.30
2022-08-30T05:54:17.152Z,15.30
2022-08-30T05:57:03.469Z,15.40
2022-08-30T05:59:49.095Z,15.50
2022-08-30T06:02:35.112Z,15.60
2022-08-30T06:05:21.135Z,15.70
2022-08-30T06:08:08.508Z,15.70
2022-08-30T06:10:54.570Z,15.80
2022-08-30T06:13:42.249Z,15.80
2022-08-30T06:16:29.249Z,15.90
2022-08-30T06:19:16.162Z,15.90
2022-08-30T06:22:02.067Z,15.90
2022-08-30T06:24:57.585Z,15.80
2022-08-30T06:27:44.524Z,15.80
2022-08-30T06:30:30.514Z,15.80
2022-08-30T06:33:16.554Z,15.90
2022-08-30T06:36:16.507Z,16.00
2022-08-30T06:39:03.499Z,16.10
2022-08-30T06:41:50.120Z,16.30
2022-08-30T06:44:52.067Z,16.20
2022-08-30T06:47:37.702Z,16.20
2022-08-30T06:50:25.803Z,16.20
2022-08-30T06:53:12.029Z,16.30
2022-08-30T06:56:16.971Z,16.30
2022-08-30T06:59:02.640Z,16.30
2022-08-30T07:01:48.957Z,16.30
2022-08-30T07:04:35.277Z,16.40
2022-08-30T07:07:21.316Z,16.40
2022-08-30T07:10:08.033Z,16.20
2022-08-30T07:12:53.611Z,16.10
2022-08-30T07:15:43.064Z,16.00
2022-08-30T07:18:47.347Z,15.80
2022-08-30T07:21:39.546Z,15.70
2022-08-30T07:24:25.631Z,15.60
2022-08-30T07:27:11.550Z,15.60
2022-08-30T07:29:58.887Z,15.60
2022-08-30T07:32:44.923Z,15.80
2022-08-30T07:35:31.622Z,15.90
2022-08-30T07:38:17.482Z,16.10
2022-08-30T07:41:03.683Z,16.20
2022-08-30T07:43:50.386Z,16.30
2022-08-30T07:46:37.758Z,16.30
2022-08-30T07:49:23.996Z,16.50
2022-08-30T07:52:09.810Z,16.50
2022-08-30T07:54:56.958Z,16.60
2022-08-30T07:57:42.610Z,16.60
2022-08-30T08:00:28.606Z,16.30
2022-08-30T08:03:14.352Z,16.30
2022-08-30T08:06:03.163Z,16.30
2022-08-30T08:08:49.975Z,16.40
2022-08-30T08:11:36.457Z,16.30
2022-08-30T08:14:23.751Z,16.20
2022-08-30T08:17:09.447Z,16.10
2022-08-30T08:19:54.946Z,16.30
2022-08-30T08:22:41.055Z,16.40
2022-08-30T08:25:27.323Z,16.30
2022-08-30T08:28:13.257Z,16.30
2022-08-30T08:30:59.382Z,16.20
2022-08-30T08:33:45.514Z,16.10
2022-08-30T08:36:33.278Z,16.00
2022-08-30T08:39:19.395Z,16.10
2022-08-30T08:42:48.973Z,16.10
2022-08-30T08:45:34.838Z,16.10
2022-08-30T08:48:45.687Z,15.90
2022-08-30T08:51:58.439Z,15.70
2022-08-30T08:55:02.701Z,15.60
2022-08-30T08:57:48.499Z,15.40
2022-08-30T09:00:34.371Z,15.30
2022-08-30T09:03:24.219Z,15.20
2022-08-30T09:06:59.240Z,15.20
2022-08-30T09:09:44.841Z,15.10
2022-08-30T09:12:30.463Z,15.10
2022-08-30T09:15:24.051Z,15.10
2022-08-30T09:18:19.745Z,15.10
2022-08-30T09:21:07.530Z,15.30
2022-08-30T09:24:04.927Z,15.20
2022-08-30T09:26:50.610Z,15.30
2022-08-30T09:29:36.820Z,15.30
2022-08-30T09:32:28.388Z,15.50
2022-08-30T09:35:21.052Z,15.50
2022-08-30T09:38:11.212Z,15.50
2022-08-30T09:41:02.425Z,15.60
2022-08-30T09:44:06.833Z,15.50
2022-08-30T09:46:57.081Z,15.40
2022-08-30T09:49:44.458Z,15.30
2022-08-30T09:52:42.314Z,15.30
2022-08-30T09:55:46.722Z,15.30
2022-08-30T09:58:42.226Z,15.30
2022-08-30T10:01:33.371Z,15.40
2022-08-30T10:04:47.281Z,15.50
2022-08-30T10:07:45.162Z,15.40
2022-08-30T10:10:45.244Z,15.50
2022-08-30T10:13:35.062Z,15.70
2022-08-30T10:16:27.197Z,15.80
2022-08-30T10:19:18.797Z,16.10
2022-08-30T10:22:19.387Z,16.30
2022-08-30T10:25:21.371Z,16.30
2022-08-30T10:28:14.673Z,16.40
2022-08-30T10:31:07.325Z,16.50
2022-08-30T10:33:59.251Z,16.70
2022-08-30T10:36:51.034Z,16.90
2022-08-30T10:39:43.448Z,17.40
2022-08-30T10:42:39.374Z,17.80
2022-08-30T10:45:27.263Z,17.40
2022-08-30T10:48:31.455Z,17.10
2022-08-30T10:51:46.205Z,17.10
2022-08-30T10:54:47.122Z,17.00
2022-08-30T10:57:33.155Z,17.00
2022-08-30T11:00:30.463Z,17.00
2022-08-30T11:03:51.856Z,16.90
2022-08-30T11:06:45.736Z,16.80
2022-08-30T11:10:05.647Z,16.70
2022-08-30T11:13:15.885Z,16.80
2022-08-30T11:16:01.826Z,16.90
2022-08-30T11:18:57.940Z,17.00
2022-08-30T11:21:44.559Z,17.20
2022-08-30T11:24:55.980Z,17.40
2022-08-30T11:27:53.995Z,17.50
2022-08-30T11:30:39.629Z,17.20
2022-08-30T11:33:40.041Z,17.10
2022-08-30T11:36:28.975Z,17.10
2022-08-30T11:39:42.789Z,17.10
2022-08-30T11:42:42.287Z,16.90
2022-08-30T11:45:28.500Z,17.00
2022-08-30T11:48:54.243Z,17.00
2022-08-30T11:55:36.610Z,17.30
2022-08-30T11:58:27.972Z,17.40
2022-08-30T12:01:41.983Z,17.60
2022-08-30T12:04:45.814Z,17.90
2022-08-30T12:07:58.384Z,17.90
2022-08-30T12:10:57.366Z,18.00
2022-08-30T12:13:42.925Z,17.90
2022-08-30T12:16:34.709Z,18.00
2022-08-30T12:19:21.600Z,18.00
2022-08-30T12:22:07.617Z,18.00
2022-08-30T12:24:55.427Z,18.00
2022-08-30T12:27:41.289Z,18.00
2022-08-30T12:30:28.160Z,18.20
2022-08-30T12:33:39.507Z,18.50
2022-08-30T12:36:59.724Z,18.60
2022-08-30T12:39:45.938Z,18.80
2022-08-30T12:42:44.615Z,18.50
2022-08-30T12:45:45.341Z,18.30
2022-08-30T12:48:39.058Z,18.30
2022-08-30T12:51:38.816Z,18.20
2022-08-30T12:54:31.157Z,18.10
2022-08-30T12:57:37.345Z,17.80
2022-08-30T13:00:32.793Z,17.80
2022-08-30T13:03:37.115Z,17.90
2022-08-30T13:06:49.166Z,18.10
2022-08-30T13:09:37.201Z,18.20
2022-08-30T13:12:26.608Z,18.10
2022-08-30T13:15:27.510Z,18.10
2022-08-30T13:18:27.414Z,18.20
2022-08-30T13:21:28.186Z,18.10
2022-08-30T13:24:14.464Z,18.20
2022-08-30T13:27:06.806Z,18.30
2022-08-30T13:29:53.264Z,18.30
2022-08-30T13:32:39.188Z,18.40
2022-08-30T13:35:25.404Z,18.40
2022-08-30T13:38:10.984Z,18.50
2022-08-30T13:40:57.205Z,18.70
2022-08-30T13:46:55.311Z,18.50
2022-08-30T13:49:44.327Z,18.60
2022-08-30T13:52:30.524Z,18.60
2022-08-30T13:55:16.460Z,18.70
2022-08-30T13:58:02.663Z,19.00
2022-08-30T14:00:48.699Z,18.90
2022-08-30T14:04:13.210Z,18.50
2022-08-30T14:09:52.097Z,18.30
2022-08-30T14:12:58.828Z,18.40
2022-08-30T14:15:44.613Z,18.30
2022-08-30T14:18:31.438Z,18.30
2022-08-30T14:21:17.576Z,18.30
2022-08-30T14:24:08.018Z,18.20
2022-08-30T14:26:53.753Z,18.20
2022-08-30T14:29:39.677Z,18.10
2022-08-30T14:32:25.768Z,18.20
2022-08-30T14:35:11.660Z,18.30
2022-08-30T14:37:57.414Z,18.30
2022-08-30T14:40:44.968Z,18.30
2022-08-30T14:43:30.927Z,18.40
2022-08-30T14:46:17.127Z,19.10
2022-08-30T14:49:03.061Z,19.80
2022-08-30T14:51:52.536Z,20.30
2022-08-30T14:54:38.693Z,20.70
2022-08-30T14:57:31.648Z,20.90
2022-08-30T15:00:20.141Z,21.10
2022-08-30T15:03:06.363Z,21.00
2022-08-30T15:05:53.079Z,20.70
2022-08-30T15:08:39.494Z,20.90
2022-08-30T15:11:26.499Z,21.00
2022-08-30T15:14:15.963Z,21.20
2022-08-30T15:17:05.218Z,21.30
2022-08-30T15:19:51.428Z,21.30
2022-08-30T15:22:37.732Z,20.30
2022-08-30T15:25:23.429Z,19.60
2022-08-30T15:28:09.698Z,19.00
2022-08-30T15:30:55.846Z,18.60
2022-08-30T15:33:42.065Z,18.30
2022-08-30T15:36:30.545Z,17.80
2022-08-30T15:39:17.179Z,17.60
2022-08-30T15:42:03.375Z,17.50
2022-08-30T15:44:54.130Z,17.40
2022-08-30T15:47:40.043Z,17.50
2022-08-30T15:50:27.095Z,17.50
2022-08-30T15:53:14.257Z,17.50
2022-08-30T15:56:01.086Z,17.40
2022-08-30T15:58:48.539Z,17.30
2022-08-30T16:01:34.915Z,17.10
2022-08-30T16:04:22.384Z,17.00
2022-08-30T16:07:09.220Z,16.80
2022-08-30T16:09:55.048Z,16.80
2022-08-30T16:12:41.650Z,16.70
2022-08-30T16:15:28.125Z,16.70
2022-08-30T16:18:14.839Z,17.00
2022-08-30T16:21:10.053Z,17.50
2022-08-30T16:23:58.245Z,18.00
2022-08-30T16:26:44.683Z,17.90
2022-08-30T16:29:30.368Z,18.20
2022-08-30T16:32:16.264Z,18.30
2022-08-30T16:35:02.346Z,18.20
2022-08-30T16:37:48.239Z,18.00
2022-08-30T16:40:35.172Z,17.70
2022-08-30T16:43:21.513Z,17.40
2022-08-30T16:46:11.287Z,17.10
2022-08-30T16:48:59.984Z,16.90
2022-08-30T16:51:46.240Z,16.70
2022-08-30T16:54:32.097Z,16.60
2022-08-30T16:57:18.491Z,16.60
2022-08-30T17:00:13.272Z,16.60
2022-08-30T17:02:59.871Z,16.60
2022-08-30T17:05:45.936Z,16.50
2022-08-30T17:08:32.255Z,16.40
2022-08-30T17:11:18.136Z,16.40
2022-08-30T17:14:04.838Z,16.40
2022-08-30T17:16:50.478Z,16.30
2022-08-30T17:19:42.210Z,16.20
2022-08-30T17:22:28.967Z,16.10
2022-08-30T17:25:14.662Z,16.10
2022-08-30T17:28:01.308Z,15.90
2022-08-30T17:30:47.442Z,15.80
2022-08-30T17:33:39.077Z,15.70
2022-08-30T17:36:24.691Z,15.60
2022-08-30T17:39:11.912Z,15.60
2022-08-30T17:41:59.167Z,15.60
2022-08-30T17:44:46.859Z,15.60
2022-08-30T17:47:33.095Z,15.60
2022-08-30T17:50:22.255Z,15.60
2022-08-30T17:53:08.675Z,15.50
2022-08-30T17:55:54.954Z,15.40
2022-08-30T17:58:41.071Z,15.40
2022-08-30T18:01:26.861Z,15.30
2022-08-30T18:04:14.332Z,15.10
2022-08-30T18:07:06.474Z,15.10
2022-08-30T18:09:53.350Z,15.00
2022-08-30T18:12:39.439Z,14.90
2022-08-30T18:15:28.016Z,14.80
2022-08-30T18:18:14.748Z,14.70
2022-08-30T18:21:00.823Z,14.60
2022-08-30T18:23:46.649Z,14.50
2022-08-30T18:26:33.088Z,14.50
2022-08-30T18:32:28.869Z,14.40
2022-08-30T18:35:21.320Z,14.30
2022-08-30T18:38:06.976Z,14.20
2022-08-30T18:40:59.060Z,14.10
2022-08-30T18:43:45.540Z,14.00
2022-08-30T18:46:31.162Z,14.00
2022-08-30T18:49:17.047Z,13.90
2022-08-30T18:52:06.560Z,13.80
2022-08-30T18:54:53.357Z,13.70
2022-08-30T18:57:39.182Z,13.70
2022-08-30T19:00:25.026Z,13.70
2022-08-30T19:03:11.366Z,13.60
2022-08-30T19:05:57.327Z,13.60
2022-08-30T19:08:45.803Z,13.60
2022-08-30T19:11:31.803Z,13.60
2022-08-30T19:14:17.784Z,13.50
2022-08-30T19:17:06.923Z,13.40
2022-08-30T19:19:54.637Z,13.40
2022-08-30T19:23:09.324Z,13.50
2022-08-30T19:25:46.595Z,13.50
2022-08-30T19:28:39.176Z,13.60
2022-08-30T19:31:24.907Z,13.60
2022-08-30T19:34:11.077Z,13.70
2022-08-30T19:36:57.035Z,13.70
2022-08-30T19:39:43.150Z,13.70
2022-08-30T19:42:32.423Z,13.80
2022-08-30T19:45:21.469Z,13.70
2022-08-30T19:48:07.611Z,13.70
2022-08-30T19:50:54.498Z,13.60
2022-08-30T19:53:41.585Z,13.60
2022-08-30T19:56:27.571Z,13.60
2022-08-30T19:59:13.529Z,13.50
2022-08-30T20:01:59.423Z,13.50
2022-08-30T20:04:45.747Z,13.50
2022-08-30T20:07:36.169Z,13.50
2022-08-30T20:10:26.079Z,13.50
2022-08-30T20:13:12.191Z,13.40
2022-08-30T20:15:59.063Z,13.40
2022-08-30T20:18:45.755Z,13.30
2022-08-30T20:21:32.004Z,13.30
2022-08-30T20:24:17.874Z,13.30
2022-08-30T20:27:04.499Z,13.20
2022-08-30T20:29:51.085Z,13.20
2022-08-30T20:32:38.106Z,13.10
2022-08-30T20:35:24.285Z,13.10
2022-08-30T20:38:20.580Z,13.10
2022-08-30T20:41:12.574Z,13.10
2022-08-30T20:43:59.747Z,13.10
2022-08-30T20:46:47.267Z,13.10
2022-08-30T20:49:34.347Z,13.30
2022-08-30T20:52:20.231Z,13.30
2022-08-30T20:55:06.788Z,13.40
2022-08-30T20:57:52.628Z,13.50
2022-08-30T21:00:39.175Z,13.50
2022-08-30T21:03:26.539Z,13.60
2022-08-30T21:06:16.331Z,13.70
2022-08-30T21:09:02.360Z,13.80
2022-08-30T21:11:48.052Z,13.90
2022-08-30T21:14:34.005Z,13.90
2022-08-30T21:17:19.977Z,14.00
2022-08-30T21:20:07.543Z,14.00
2022-08-30T21:22:53.577Z,14.10
2022-08-30T21:25:41.871Z,14.10
2022-08-30T21:28:27.607Z,14.10
2022-08-30T21:31:17.087Z,14.20
2022-08-30T21:34:03.646Z,14.20
2022-08-30T21:36:49.595Z,14.20
2022-08-30T21:39:35.563Z,14.20
2022-08-30T21:42:21.711Z,14.30
2022-08-30T21:45:07.900Z,14.30
2022-08-30T21:47:53.603Z,14.40
2022-08-30T21:50:42.101Z,14.50
2022-08-30T21:53:27.906Z,14.60
2022-08-30T21:56:22.334Z,14.70
2022-08-30T21:59:08.976Z,14.60
2022-08-30T22:01:55.372Z,14.60
2022-08-30T22:04:41.914Z,14.50
2022-08-30T22:07:27.840Z,14.40
2022-08-30T22:10:13.725Z,14.40
2022-08-30T22:12:59.485Z,14.40
2022-08-30T22:15:45.777Z,14.30
2022-08-30T22:18:32.362Z,14.20
2022-08-30T22:21:22.417Z,14.10
2022-08-30T22:24:09.303Z,14.00
2022-08-30T22:26:55.165Z,14.00
2022-08-30T22:29:41.517Z,14.00
2022-08-30T22:32:27.117Z,13.90
2022-08-30T22:35:13.118Z,13.90
2022-08-30T22:38:00.462Z,13.90
2022-08-30T22:40:48.215Z,13.80
2022-08-30T22:43:34.372Z,13.80
2022-08-30T22:46:21.977Z,13.80
2022-08-30T22:49:15.495Z,13.80
2022-08-30T22:52:01.467Z,13.70
2022-08-30T22:54:49.432Z,13.70
2022-08-30T22:57:37.730Z,13.70
2022-08-30T23:00:23.417Z,13.70
2022-08-30T23:03:11.152Z,13.70
2022-08-30T23:05:57.163Z,13.80
2022-08-30T23:08:43.535Z,13.80
2022-08-30T23:11:31.875Z,13.80
2022-08-30T23:14:19.493Z,13.80
2022-08-30T23:17:05.538Z,13.80
2022-08-30T23:19:51.301Z,13.90
2022-08-30T23:22:37.253Z,13.90
2022-08-30T23:25:41.841Z,13.90
2022-08-30T23:28:48.713Z,14.00
2022-08-30T23:31:52.932Z,14.10
2022-08-30T23:34:57.423Z,14.20
2022-08-30T23:38:01.521Z,14.20
2022-08-30T23:41:05.384Z,14.30
2022-08-30T23:44:09.951Z,14.40
2022-08-30T23:47:14.647Z,14.40
2022-08-30T23:50:18.723Z,14.40
2022-08-30T23:53:23.110Z,14.40
2022-08-30T23:56:30.603Z,14.50
2022-08-30T23:59:34.899Z,14.50
